Time;durP1;ratioP1;P1;durP2;ratioP2;P2;SDS_P1;SDS_P2;PMS_P1;PMS_P2;Temp;Humidity;BMP_temperature;BMP_pressure;BME280_temperature;BME280_humidity;BME280_pressure;Samples;Min_cycle;Max_cycle;Signal;HPM_P1;HPM_P2
2022/11/10 00:00:16;;;;;;;28.60;3.97;;;;;;;;;;4969457;28;20446;-77
2022/11/10 00:02:43;;;;;;;22.55;3.35;;;;;;;;;;4959860;28;20329;-75
2022/11/10 00:05:09;;;;;;;24.70;3.65;;;;;;;;;;4968006;28;20045;-76
2022/11/10 00:07:37;;;;;;;25.40;3.88;;;;;;;;;;4967800;28;20545;-76
2022/11/10 00:10:03;;;;;;;15.95;2.92;;;;;;;;;;4948372;28;20451;-76
2022/11/10 00:12:30;;;;;;;23.92;4.45;;;;;;;;;;4933902;28;20065;-75
2022/11/10 00:17:39;;;;;;;16.85;3.35;;;;;;;;;;4950652;28;20711;-77
2022/11/10 00:20:05;;;;;;;28.38;4.18;;;;;;;;;;4968500;28;20434;-76
2022/11/10 00:22:31;;;;;;;26.95;4.10;;;;;;;;;;4967699;28;20045;-76
2022/11/10 00:24:57;;;;;;;27.60;4.35;;;;;;;;;;4953954;28;20379;-74
2022/11/10 00:27:22;;;;;;;26.30;3.78;;;;;;;;;;4949915;28;20084;-77
2022/11/10 00:29:50;;;;;;;22.27;3.80;;;;;;;;;;4926291;28;20081;-77
2022/11/10 00:32:15;;;;;;;17.98;3.33;;;;;;;;;;4936378;28;20389;-77
2022/11/10 00:34:43;;;;;;;21.10;3.85;;;;;;;;;;4966179;28;20254;-75
2022/11/10 00:37:09;;;;;;;35.88;4.45;;;;;;;;;;4969849;28;20030;-78
2022/11/10 00:39:40;;;;;;;26.02;4.28;;;;;;;;;;4934974;28;20030;-77
2022/11/10 00:42:06;;;;;;;35.70;4.85;;;;;;;;;;4970510;28;20040;-77
2022/11/10 00:44:32;;;;;;;26.90;3.80;;;;;;;;;;4977763;28;20683;-78
2022/11/10 00:46:58;;;;;;;23.08;3.47;;;;;;;;;;4965352;28;20374;-80
2022/11/10 00:49:23;;;;;;;30.33;4.60;;;;;;;;;;4974785;28;20049;-80
2022/11/10 00:51:49;;;;;;;32.10;3.75;;;;;;;;;;4958394;28;20048;-78
2022/11/10 00:54:14;;;;;;;24.92;3.90;;;;;;;;;;4947520;28;20129;-76
2022/11/10 00:56:39;;;;;;;30.35;3.85;;;;;;;;;;4978093;28;20451;-78
2022/11/10 00:59:06;;;;;;;36.30;4.35;;;;;;;;;;4964386;28;20133;-78
2022/11/10 01:01:34;;;;;;;23.95;3.67;;;;;;;;;;4967522;28;20180;-78
2022/11/10 01:03:59;;;;;;;28.27;4.85;;;;;;;;;;4979168;28;20118;-78
2022/11/10 01:06:25;;;;;;;25.75;4.07;;;;;;;;;;4962706;28;20030;-77
2022/11/10 01:08:51;;;;;;;24.90;4.07;;;;;;;;;;4985098;28;20045;-78
2022/11/10 01:11:22;;;;;;;22.60;3.78;;;;;;;;;;4975664;28;20544;-78
2022/11/10 01:13:48;;;;;;;20.52;3.83;;;;;;;;;;4986044;28;20101;-78
2022/11/10 01:16:18;;;;;;;26.92;4.03;;;;;;;;;;4988186;28;20048;-79
2022/11/10 01:18:51;;;;;;;31.58;4.25;;;;;;;;;;4966516;28;20574;-80
2022/11/10 01:21:17;;;;;;;24.02;3.78;;;;;;;;;;4979458;28;20069;-78
2022/11/10 01:23:42;;;;;;;23.92;3.92;;;;;;;;;;4976169;28;20494;-76
2022/11/10 01:26:08;;;;;;;26.08;3.53;;;;;;;;;;4967871;28;20042;-76
2022/11/10 01:28:34;;;;;;;32.47;4.90;;;;;;;;;;4951806;28;20385;-76
2022/11/10 01:31:01;;;;;;;19.15;3.88;;;;;;;;;;4945005;28;20030;-76
2022/11/10 01:33:27;;;;;;;25.17;4.88;;;;;;;;;;4964097;28;20049;-76
2022/11/10 01:35:52;;;;;;;31.38;4.38;;;;;;;;;;4962127;28;20567;-80
2022/11/10 01:38:18;;;;;;;27.65;3.85;;;;;;;;;;4950217;28;20088;-78
2022/11/10 01:40:46;;;;;;;29.52;3.40;;;;;;;;;;4973270;28;20081;-79
2022/11/10 01:43:16;;;;;;;23.30;3.95;;;;;;;;;;4965401;28;20042;-78
2022/11/10 01:45:52;;;;;;;25.73;3.47;;;;;;;;;;4977939;28;20060;-78
2022/11/10 01:48:24;;;;;;;27.65;4.57;;;;;;;;;;4980830;28;20045;-80
2022/11/10 01:50:50;;;;;;;26.17;4.22;;;;;;;;;;4964111;28;20453;-80
2022/11/10 01:53:18;;;;;;;28.05;4.53;;;;;;;;;;4933813;28;20449;-78
2022/11/10 01:55:44;;;;;;;29.73;3.47;;;;;;;;;;4974331;28;20604;-79
2022/11/10 01:58:11;;;;;;;26.50;3.67;;;;;;;;;;4967380;28;20088;-79
2022/11/10 02:00:36;;;;;;;27.77;4.28;;;;;;;;;;4962507;28;20530;-79
2022/11/10 02:03:24;;;;;;;31.75;4.22;;;;;;;;;;4978918;28;20054;-79
2022/11/10 02:05:50;;;;;;;38.45;4.90;;;;;;;;;;4970882;28;20042;-80
2022/11/10 02:08:16;;;;;;;27.63;4.35;;;;;;;;;;4981061;28;20048;-78
2022/11/10 02:10:43;;;;;;;30.25;4.85;;;;;;;;;;4979049;28;20057;-78
2022/11/10 02:13:09;;;;;;;29.92;4.20;;;;;;;;;;4976058;28;20042;-79
2022/11/10 02:15:35;;;;;;;23.40;3.80;;;;;;;;;;4949849;28;20900;-76
2022/11/10 02:18:00;;;;;;;21.55;3.75;;;;;;;;;;4942931;28;20021;-76
2022/11/10 02:20:28;;;;;;;25.20;4.00;;;;;;;;;;4943851;28;20248;-75
2022/11/10 02:22:53;;;;;;;32.88;4.15;;;;;;;;;;4975552;28;20397;-79
2022/11/10 02:25:20;;;;;;;26.80;3.42;;;;;;;;;;4969628;28;20038;-76
2022/11/10 02:27:46;;;;;;;29.55;5.20;;;;;;;;;;4964253;28;20045;-75
2022/11/10 02:30:11;;;;;;;26.85;4.80;;;;;;;;;;4943176;28;20038;-76
2022/11/10 02:32:37;;;;;;;27.65;4.28;;;;;;;;;;4961521;28;20034;-75
2022/11/10 02:35:02;;;;;;;29.58;4.30;;;;;;;;;;4963189;28;20399;-75
2022/11/10 02:37:28;;;;;;;30.02;4.65;;;;;;;;;;4964313;28;20084;-77
2022/11/10 02:39:56;;;;;;;30.73;4.85;;;;;;;;;;4962534;28;20716;-76
2022/11/10 02:42:21;;;;;;;30.35;4.05;;;;;;;;;;4949549;28;20200;-76
2022/11/10 02:44:47;;;;;;;28.02;4.35;;;;;;;;;;4964673;28;20025;-76
2022/11/10 02:47:12;;;;;;;30.70;4.38;;;;;;;;;;4951583;28;20253;-75
2022/11/10 02:49:38;;;;;;;31.55;4.00;;;;;;;;;;4961058;28;20759;-75
2022/11/10 02:52:04;;;;;;;30.20;4.65;;;;;;;;;;4963592;28;20439;-77
2022/11/10 02:54:29;;;;;;;30.70;5.10;;;;;;;;;;4925367;28;20545;-77
2022/11/10 02:56:54;;;;;;;25.35;3.95;;;;;;;;;;4963960;28;20719;-76
2022/11/10 02:59:20;;;;;;;30.45;4.93;;;;;;;;;;4963173;28;20546;-76
2022/11/10 03:01:45;;;;;;;24.73;4.45;;;;;;;;;;4945284;28;20040;-76
2022/11/10 03:04:11;;;;;;;30.40;4.28;;;;;;;;;;4950750;28;21824;-76
2022/11/10 03:06:36;;;;;;;37.13;4.53;;;;;;;;;;4964082;28;20070;-76
2022/11/10 03:09:02;;;;;;;29.40;4.80;;;;;;;;;;4962622;28;20156;-75
2022/11/10 03:11:27;;;;;;;30.70;4.07;;;;;;;;;;4963205;28;20141;-76
2022/11/10 03:13:53;;;;;;;32.10;4.25;;;;;;;;;;4962511;28;20044;-76
2022/11/10 03:16:18;;;;;;;27.08;5.00;;;;;;;;;;4966341;28;20433;-77
2022/11/10 03:18:44;;;;;;;39.03;4.72;;;;;;;;;;4965573;28;20569;-76
2022/11/10 03:21:09;;;;;;;23.88;3.72;;;;;;;;;;4968746;28;21250;-76
2022/11/10 03:23:35;;;;;;;33.58;4.88;;;;;;;;;;4964744;28;20030;-75
2022/11/10 03:26:03;;;;;;;27.02;4.65;;;;;;;;;;4947118;28;20038;-75
2022/11/10 03:28:31;;;;;;;29.38;4.30;;;;;;;;;;4947995;28;20431;-77
2022/11/10 03:30:56;;;;;;;29.65;4.30;;;;;;;;;;4968948;28;20243;-76
2022/11/10 03:33:24;;;;;;;36.50;5.32;;;;;;;;;;4952046;28;20138;-75
2022/11/10 03:35:49;;;;;;;29.60;3.72;;;;;;;;;;4963704;28;20589;-76
2022/11/10 03:38:17;;;;;;;30.80;4.18;;;;;;;;;;4967967;28;20049;-76
2022/11/10 03:40:42;;;;;;;25.90;4.85;;;;;;;;;;4968840;28;20033;-75
2022/11/10 03:43:10;;;;;;;33.13;5.38;;;;;;;;;;4966661;28;20768;-75
2022/11/10 03:45:36;;;;;;;27.85;3.85;;;;;;;;;;4967587;28;20540;-74
2022/11/10 03:48:04;;;;;;;29.45;4.88;;;;;;;;;;4966680;28;20045;-75
2022/11/10 03:50:29;;;;;;;30.10;4.78;;;;;;;;;;4964768;28;20037;-75
2022/11/10 03:52:57;;;;;;;30.50;4.72;;;;;;;;;;4954161;28;21020;-76
2022/11/10 03:55:22;;;;;;;36.65;4.72;;;;;;;;;;4966135;28;20426;-74
2022/11/10 03:57:47;;;;;;;28.80;4.35;;;;;;;;;;4937999;28;20038;-76
2022/11/10 04:00:13;;;;;;;27.90;4.18;;;;;;;;;;4957117;28;20313;-75
2022/11/10 04:02:39;;;;;;;26.60;4.40;;;;;;;;;;4964551;28;20034;-74
2022/11/10 04:10:42;;;;;;;35.10;4.90;;;;;;;;;;4965184;28;20582;-76
2022/11/10 04:15:51;;;;;;;28.00;4.32;;;;;;;;;;4965243;28;20334;-75
2022/11/10 04:18:28;;;;;;;32.25;4.43;;;;;;;;;;4968462;28;20117;-80
2022/11/10 04:20:57;;;;;;;33.15;4.50;;;;;;;;;;4966753;28;20546;-77
2022/11/10 04:23:26;;;;;;;24.02;4.38;;;;;;;;;;4966160;28;20038;-76
2022/11/10 04:28:40;;;;;;;32.20;4.70;;;;;;;;;;4967947;28;20400;-75
2022/11/10 04:31:09;;;;;;;38.83;5.70;;;;;;;;;;4966618;28;20501;-75
2022/11/10 04:33:35;;;;;;;28.02;4.10;;;;;;;;;;4933172;28;20355;-75
2022/11/10 04:36:03;;;;;;;35.33;5.88;;;;;;;;;;4967122;28;20578;-75
2022/11/10 04:38:28;;;;;;;36.65;5.28;;;;;;;;;;4950202;28;20041;-76
2022/11/10 04:40:53;;;;;;;40.65;4.50;;;;;;;;;;4966632;28;20084;-75
2022/11/10 04:43:19;;;;;;;26.75;4.45;;;;;;;;;;4956512;28;20061;-76
2022/11/10 04:45:45;;;;;;;32.67;5.10;;;;;;;;;;4963429;28;21491;-76
2022/11/10 04:48:13;;;;;;;35.15;5.47;;;;;;;;;;4951691;28;20846;-75
2022/11/10 04:50:40;;;;;;;33.85;4.68;;;;;;;;;;4964835;28;20239;-76
2022/11/10 04:53:06;;;;;;;31.73;5.57;;;;;;;;;;4964660;28;20181;-76
2022/11/10 04:55:31;;;;;;;35.58;4.40;;;;;;;;;;4964557;28;20038;-76
2022/11/10 04:57:57;;;;;;;29.58;4.40;;;;;;;;;;4968766;28;20663;-75
2022/11/10 05:00:26;;;;;;;34.17;4.25;;;;;;;;;;4943558;28;20588;-75
2022/11/10 05:02:54;;;;;;;31.92;4.65;;;;;;;;;;4949536;28;20438;-75
2022/11/10 05:05:19;;;;;;;39.67;4.75;;;;;;;;;;4948043;28;20216;-75
2022/11/10 05:07:47;;;;;;;27.60;4.55;;;;;;;;;;4967534;28;20068;-75
2022/11/10 05:10:15;;;;;;;33.83;4.88;;;;;;;;;;4951537;28;20042;-76
2022/11/10 05:12:41;;;;;;;40.08;5.28;;;;;;;;;;4943150;28;20562;-74
2022/11/10 05:15:06;;;;;;;41.88;5.32;;;;;;;;;;4942163;28;20034;-75
2022/11/10 05:17:33;;;;;;;37.38;5.25;;;;;;;;;;4943297;28;20042;-75
2022/11/10 05:19:58;;;;;;;29.90;4.47;;;;;;;;;;4943820;28;20030;-75
2022/11/10 05:22:27;;;;;;;34.40;5.20;;;;;;;;;;4919611;28;20221;-76
2022/11/10 05:24:52;;;;;;;27.33;4.03;;;;;;;;;;4936774;28;20053;-75
2022/11/10 05:27:17;;;;;;;39.13;5.43;;;;;;;;;;4939882;28;20031;-77
2022/11/10 05:29:43;;;;;;;35.20;4.95;;;;;;;;;;4938218;28;20571;-77
2022/11/10 05:32:10;;;;;;;27.63;4.15;;;;;;;;;;4932593;28;20042;-76
2022/11/10 05:34:36;;;;;;;30.63;4.30;;;;;;;;;;4941457;28;20300;-76
2022/11/10 05:37:01;;;;;;;33.53;5.47;;;;;;;;;;4900438;28;20476;-76
2022/11/10 05:39:26;;;;;;;33.70;5.57;;;;;;;;;;4920010;28;20367;-81
2022/11/10 05:41:52;;;;;;;35.35;4.88;;;;;;;;;;4943327;28;22458;-84
2022/11/10 05:44:18;;;;;;;27.85;5.60;;;;;;;;;;4947806;28;20030;-80
2022/11/10 05:46:44;;;;;;;34.13;4.03;;;;;;;;;;4927232;28;20482;-80
2022/11/10 05:49:14;;;;;;;29.58;4.50;;;;;;;;;;4940410;28;20670;-81
2022/11/10 05:51:42;;;;;;;31.67;4.90;;;;;;;;;;4960974;28;20495;-81
2022/11/10 05:54:07;;;;;;;34.30;4.93;;;;;;;;;;4958182;28;20058;-76
2022/11/10 05:56:33;;;;;;;27.88;4.10;;;;;;;;;;4919169;28;20196;-80
2022/11/10 05:58:59;;;;;;;29.25;4.38;;;;;;;;;;4965239;28;20038;-82
2022/11/10 06:01:26;;;;;;;25.67;3.97;;;;;;;;;;4959703;28;20045;-83
2022/11/10 06:03:51;;;;;;;31.67;4.90;;;;;;;;;;4962719;28;20031;-81
2022/11/10 06:06:21;;;;;;;34.85;4.63;;;;;;;;;;4955544;28;20054;-81
2022/11/10 06:08:49;;;;;;;35.03;4.50;;;;;;;;;;4940097;28;20049;-80
2022/11/10 06:11:19;;;;;;;33.60;4.88;;;;;;;;;;4971626;28;20060;-82
2022/11/10 06:13:44;;;;;;;34.42;4.78;;;;;;;;;;4954499;28;20237;-80
2022/11/10 06:16:12;;;;;;;28.95;4.88;;;;;;;;;;4967377;28;21538;-82
2022/11/10 06:18:37;;;;;;;30.92;4.40;;;;;;;;;;4953916;28;20029;-81
2022/11/10 06:21:04;;;;;;;34.10;5.63;;;;;;;;;;4970023;28;20030;-88
2022/11/10 06:23:29;;;;;;;25.92;4.32;;;;;;;;;;4947094;28;20034;-82
2022/11/10 06:25:55;;;;;;;31.70;5.00;;;;;;;;;;4963560;28;20025;-77
2022/11/10 06:28:20;;;;;;;27.10;4.05;;;;;;;;;;4964892;28;20046;-77
2022/11/10 06:30:46;;;;;;;34.35;4.65;;;;;;;;;;4949481;28;21251;-74
2022/11/10 06:33:13;;;;;;;28.17;4.35;;;;;;;;;;4962618;28;20049;-77
2022/11/10 06:35:38;;;;;;;40.30;4.60;;;;;;;;;;4940556;28;22002;-74
2022/11/10 06:38:05;;;;;;;28.70;5.00;;;;;;;;;;4965902;28;20026;-77
2022/11/10 06:40:32;;;;;;;33.47;4.38;;;;;;;;;;4964920;28;20065;-74
2022/11/10 06:42:58;;;;;;;29.52;4.65;;;;;;;;;;4962805;28;20037;-77
2022/11/10 06:45:24;;;;;;;37.70;4.90;;;;;;;;;;4963105;28;20044;-76
2022/11/10 06:48:01;;;;;;;39.47;4.88;;;;;;;;;;4954540;28;20068;-75
2022/11/10 06:50:26;;;;;;;29.02;4.43;;;;;;;;;;4926055;28;20454;-78
2022/11/10 06:52:52;;;;;;;31.67;4.13;;;;;;;;;;4964942;28;20153;-76
2022/11/10 06:55:18;;;;;;;37.70;4.93;;;;;;;;;;4965445;28;20857;-76
2022/11/10 06:57:43;;;;;;;32.97;5.35;;;;;;;;;;4955014;28;20038;-76
2022/11/10 07:00:09;;;;;;;31.92;4.75;;;;;;;;;;4976117;28;20029;-80
2022/11/10 07:02:37;;;;;;;39.00;5.25;;;;;;;;;;4989555;28;20087;-79
2022/11/10 07:05:02;;;;;;;30.88;4.93;;;;;;;;;;4979842;28;20040;-80
2022/11/10 07:07:28;;;;;;;30.92;4.50;;;;;;;;;;4993636;28;20026;-78
2022/11/10 07:09:55;;;;;;;35.15;5.00;;;;;;;;;;4976911;28;20077;-78
2022/11/10 07:12:25;;;;;;;30.48;4.80;;;;;;;;;;4936965;28;20117;-79
2022/11/10 07:14:50;;;;;;;36.22;5.38;;;;;;;;;;4971058;28;20035;-78
2022/11/10 07:17:21;;;;;;;31.27;4.78;;;;;;;;;;4967076;28;20121;-81
2022/11/10 07:19:46;;;;;;;36.83;5.03;;;;;;;;;;4969410;28;20466;-79
2022/11/10 07:22:11;;;;;;;27.77;3.53;;;;;;;;;;4961994;28;20405;-83
2022/11/10 07:24:39;;;;;;;25.35;4.38;;;;;;;;;;4965334;28;20045;-82
2022/11/10 07:27:06;;;;;;;24.75;3.88;;;;;;;;;;4931062;28;20038;-81
2022/11/10 07:29:31;;;;;;;24.80;4.43;;;;;;;;;;4954159;28;20530;-78
2022/11/10 07:31:57;;;;;;;29.33;4.65;;;;;;;;;;4969624;28;20043;-73
2022/11/10 07:34:24;;;;;;;36.65;4.72;;;;;;;;;;4948641;28;20300;-76
2022/11/10 07:36:49;;;;;;;36.83;5.65;;;;;;;;;;4930170;28;20811;-75
2022/11/10 07:39:15;;;;;;;32.22;4.88;;;;;;;;;;4947167;28;20042;-76
2022/11/10 07:41:40;;;;;;;24.58;3.88;;;;;;;;;;4931217;28;20598;-76
2022/11/10 07:44:05;;;;;;;34.85;5.47;;;;;;;;;;4931710;28;20489;-75
2022/11/10 07:46:31;;;;;;;33.95;4.10;;;;;;;;;;4946657;28;20206;-74
2022/11/10 07:48:56;;;;;;;30.15;4.57;;;;;;;;;;4945829;28;20443;-76
2022/11/10 07:51:31;;;;;;;33.45;4.13;;;;;;;;;;4940768;28;20206;-75
2022/11/10 07:54:25;;;;;;;39.10;5.10;;;;;;;;;;4858315;28;20034;-76
2022/11/10 07:57:19;;;;;;;28.33;4.32;;;;;;;;;;4823245;28;20919;-74
2022/11/10 07:59:56;;;;;;;33.65;5.30;;;;;;;;;;4887028;28;20055;-75
2022/11/10 08:02:22;;;;;;;33.95;4.47;;;;;;;;;;4901930;28;20051;-75
2022/11/10 08:04:49;;;;;;;31.13;4.65;;;;;;;;;;4884751;28;20262;-75
2022/11/10 08:07:14;;;;;;;25.90;4.28;;;;;;;;;;4887520;28;20051;-76
2022/11/10 08:09:40;;;;;;;39.30;4.85;;;;;;;;;;4911810;28;20607;-75
2022/11/10 08:12:06;;;;;;;26.08;4.88;;;;;;;;;;4920931;28;20554;-74
2022/11/10 08:14:31;;;;;;;30.45;4.28;;;;;;;;;;4922706;28;20035;-77
2022/11/10 08:16:57;;;;;;;35.90;4.57;;;;;;;;;;4922668;28;20811;-79
2022/11/10 08:19:27;;;;;;;33.15;4.00;;;;;;;;;;4911269;28;20175;-76
2022/11/10 08:21:52;;;;;;;34.80;5.22;;;;;;;;;;4919178;28;20409;-75
2022/11/10 08:24:17;;;;;;;27.60;4.40;;;;;;;;;;4921797;28;20222;-76
2022/11/10 08:26:43;;;;;;;26.60;4.05;;;;;;;;;;4925959;28;20034;-78
2022/11/10 08:29:09;;;;;;;27.30;4.88;;;;;;;;;;4931562;28;20133;-76
2022/11/10 08:31:34;;;;;;;38.90;6.00;;;;;;;;;;4936111;28;20077;-80
2022/11/10 08:34:00;;;;;;;29.73;4.38;;;;;;;;;;4936744;28;20069;-77
2022/11/10 08:36:25;;;;;;;37.03;5.05;;;;;;;;;;4932033;28;20077;-79
2022/11/10 08:38:50;;;;;;;49.17;7.53;;;;;;;;;;4904501;28;20284;-76
2022/11/10 08:41:16;;;;;;;46.13;6.80;;;;;;;;;;4926552;28;20034;-78
2022/11/10 08:43:41;;;;;;;37.25;6.47;;;;;;;;;;4929928;28;20433;-79
2022/11/10 08:46:07;;;;;;;51.85;7.32;;;;;;;;;;4912874;28;20031;-80
2022/11/10 08:48:33;;;;;;;40.45;7.03;;;;;;;;;;4932650;28;20051;-79
2022/11/10 08:51:00;;;;;;;39.67;6.70;;;;;;;;;;4911116;28;20303;-77
2022/11/10 08:53:26;;;;;;;33.85;6.22;;;;;;;;;;4923701;28;20077;-74
2022/11/10 08:55:52;;;;;;;36.50;6.00;;;;;;;;;;4917288;28;20395;-77
2022/11/10 08:58:20;;;;;;;33.90;5.15;;;;;;;;;;4935500;28;20742;-78
2022/11/10 09:00:45;;;;;;;33.58;6.15;;;;;;;;;;4924356;28;20088;-77
2022/11/10 09:03:13;;;;;;;38.30;6.10;;;;;;;;;;4923508;28;20713;-77
2022/11/10 09:05:41;;;;;;;39.60;6.68;;;;;;;;;;4937049;28;20460;-75
2022/11/10 09:08:07;;;;;;;33.90;5.13;;;;;;;;;;4937281;28;20111;-76
2022/11/10 09:10:35;;;;;;;27.55;6.25;;;;;;;;;;4961388;28;20544;-76
2022/11/10 09:13:01;;;;;;;35.30;5.97;;;;;;;;;;4962826;28;20522;-74
2022/11/10 09:15:27;;;;;;;32.40;6.10;;;;;;;;;;4964860;28;20439;-77
2022/11/10 09:17:53;;;;;;;30.55;5.35;;;;;;;;;;4962562;28;20389;-76
2022/11/10 09:20:23;;;;;;;37.22;6.13;;;;;;;;;;4964456;28;20034;-73
2022/11/10 09:22:48;;;;;;;34.92;6.35;;;;;;;;;;4965633;28;20466;-76
2022/11/10 09:25:16;;;;;;;34.83;5.97;;;;;;;;;;4958504;28;20079;-75
2022/11/10 09:27:41;;;;;;;33.90;5.85;;;;;;;;;;4966664;28;20056;-75
2022/11/10 09:30:07;;;;;;;36.22;5.15;;;;;;;;;;4950570;28;20077;-77
2022/11/10 09:32:33;;;;;;;30.25;4.80;;;;;;;;;;4972308;28;20103;-76
2022/11/10 09:35:01;;;;;;;34.92;5.50;;;;;;;;;;4948597;28;20038;-77
2022/11/10 09:37:26;;;;;;;27.83;4.72;;;;;;;;;;4968864;28;20041;-76
2022/11/10 09:39:52;;;;;;;38.63;5.88;;;;;;;;;;4972646;28;20520;-75
2022/11/10 09:42:36;;;;;;;34.33;4.97;;;;;;;;;;4968836;28;20034;-77
2022/11/10 09:45:16;;;;;;;29.80;5.60;;;;;;;;;;4974792;28;20033;-77
2022/11/10 09:47:45;;;;;;;34.80;5.18;;;;;;;;;;4949322;28;20346;-77
2022/11/10 09:50:14;;;;;;;38.60;6.25;;;;;;;;;;4948234;28;20048;-78
2022/11/10 09:52:40;;;;;;;28.83;5.35;;;;;;;;;;4973265;28;20593;-78
2022/11/10 09:55:23;;;;;;;43.38;6.40;;;;;;;;;;4976123;28;20042;-77
2022/11/10 09:57:53;;;;;;;34.40;5.32;;;;;;;;;;4969328;28;20068;-76
2022/11/10 10:00:18;;;;;;;45.25;6.10;;;;;;;;;;4970006;28;20557;-76
2022/11/10 10:02:49;;;;;;;36.63;6.00;;;;;;;;;;4945941;28;20034;-78
2022/11/10 10:05:33;;;;;;;34.67;5.32;;;;;;;;;;4972672;28;20748;-76
2022/11/10 10:08:02;;;;;;;39.67;5.47;;;;;;;;;;4944034;28;20839;-77
2022/11/10 10:10:27;;;;;;;35.35;6.30;;;;;;;;;;4965708;28;20057;-78
2022/11/10 10:12:57;;;;;;;36.75;5.53;;;;;;;;;;4971736;28;20548;-78
2022/11/10 10:15:25;;;;;;;44.75;7.05;;;;;;;;;;4971278;28;20387;-77
2022/11/10 10:17:57;;;;;;;35.70;6.43;;;;;;;;;;4983808;28;20033;-80
2022/11/10 10:20:31;;;;;;;37.03;4.93;;;;;;;;;;4964431;28;20042;-77
2022/11/10 10:23:04;;;;;;;34.92;5.45;;;;;;;;;;4970493;28;20172;-78
2022/11/10 10:25:32;;;;;;;43.78;6.53;;;;;;;;;;4953371;28;20120;-82
2022/11/10 10:28:04;;;;;;;36.03;5.68;;;;;;;;;;4971077;28;20469;-81
2022/11/10 10:30:29;;;;;;;37.03;6.18;;;;;;;;;;4957676;28;20669;-80
2022/11/10 10:32:56;;;;;;;36.10;5.78;;;;;;;;;;4972152;28;20033;-80
2022/11/10 10:35:22;;;;;;;31.05;5.22;;;;;;;;;;4962144;28;20081;-81
2022/11/10 10:37:51;;;;;;;31.90;6.55;;;;;;;;;;4929721;28;20272;-77
2022/11/10 10:40:18;;;;;;;35.42;6.20;;;;;;;;;;4965285;28;20153;-76
2022/11/10 10:42:46;;;;;;;34.20;5.88;;;;;;;;;;4963936;28;20745;-77
2022/11/10 10:45:27;;;;;;;33.65;6.30;;;;;;;;;;4955701;28;20038;-81
2022/11/10 10:47:53;;;;;;;39.40;6.38;;;;;;;;;;4969621;28;20022;-81
2022/11/10 10:50:19;;;;;;;31.27;5.80;;;;;;;;;;4966198;28;20050;-76
2022/11/10 10:53:03;;;;;;;37.58;6.90;;;;;;;;;;4965677;28;20180;-76
2022/11/10 10:55:32;;;;;;;43.08;6.47;;;;;;;;;;4965249;28;20659;-75
2022/11/10 10:57:58;;;;;;;32.85;5.75;;;;;;;;;;4965927;28;20335;-75
2022/11/10 11:00:24;;;;;;;39.22;5.68;;;;;;;;;;4952298;28;20387;-79
2022/11/10 11:03:08;;;;;;;43.15;6.88;;;;;;;;;;4960396;28;20034;-82
2022/11/10 11:05:33;;;;;;;40.88;6.75;;;;;;;;;;4968798;28;20045;-82
2022/11/10 11:07:59;;;;;;;39.85;6.25;;;;;;;;;;4952725;28;20076;-83
2022/11/10 11:10:27;;;;;;;36.15;5.40;;;;;;;;;;4968498;28;20252;-80
2022/11/10 11:13:11;;;;;;;41.20;6.68;;;;;;;;;;4961774;28;20036;-80
2022/11/10 11:15:36;;;;;;;34.92;6.03;;;;;;;;;;4968521;28;20499;-79
2022/11/10 11:18:03;;;;;;;39.22;6.20;;;;;;;;;;4964304;28;21856;-77
2022/11/10 11:20:37;;;;;;;34.35;5.47;;;;;;;;;;4947823;28;20672;-75
2022/11/10 11:23:07;;;;;;;38.90;7.47;;;;;;;;;;4966516;28;20125;-78
2022/11/10 11:25:38;;;;;;;38.42;6.57;;;;;;;;;;4955225;28;20038;-75
2022/11/10 11:28:12;;;;;;;32.25;5.47;;;;;;;;;;4958329;28;20053;-76
2022/11/10 11:30:47;;;;;;;37.10;6.32;;;;;;;;;;4956645;28;20076;-77
2022/11/10 11:33:28;;;;;;;33.17;5.85;;;;;;;;;;4922828;28;20451;-77
2022/11/10 11:35:53;;;;;;;36.03;5.75;;;;;;;;;;4960408;28;20026;-78
2022/11/10 11:38:29;;;;;;;34.30;6.15;;;;;;;;;;4950126;28;20392;-75
2022/11/10 11:41:00;;;;;;;42.97;6.47;;;;;;;;;;4963709;28;20259;-78
2022/11/10 11:43:28;;;;;;;31.83;5.88;;;;;;;;;;4939070;28;20506;-78
2022/11/10 11:46:08;;;;;;;35.10;5.60;;;;;;;;;;4951600;28;20320;-77
2022/11/10 11:48:40;;;;;;;35.35;6.00;;;;;;;;;;4941562;28;20041;-77
2022/11/10 11:51:17;;;;;;;30.70;6.78;;;;;;;;;;4963741;28;20271;-75
2022/11/10 11:53:56;;;;;;;32.88;6.47;;;;;;;;;;4961993;28;20065;-77
2022/11/10 11:56:44;;;;;;;38.88;6.55;;;;;;;;;;4960714;28;20034;-79
2022/11/10 11:59:27;;;;;;;34.38;6.68;;;;;;;;;;4968161;28;20128;-81
2022/11/10 12:02:03;;;;;;;32.58;5.93;;;;;;;;;;4967229;28;22723;-82
2022/11/10 12:04:43;;;;;;;41.75;5.93;;;;;;;;;;4953846;28;20030;-81
2022/11/10 12:07:24;;;;;;;44.30;7.00;;;;;;;;;;4969220;28;20492;-77
2022/11/10 12:09:53;;;;;;;33.97;5.88;;;;;;;;;;4961837;28;20373;-77
2022/11/10 12:12:22;;;;;;;43.42;6.53;;;;;;;;;;4964285;28;20061;-74
2022/11/10 12:14:52;;;;;;;37.78;5.95;;;;;;;;;;4936618;28;20033;-76
2022/11/10 12:17:18;;;;;;;31.13;5.90;;;;;;;;;;4961715;28;22119;-77
2022/11/10 12:19:55;;;;;;;34.90;6.20;;;;;;;;;;4968902;28;20603;-75
2022/11/10 12:22:24;;;;;;;39.08;5.90;;;;;;;;;;4963429;28;20596;-75
2022/11/10 12:25:00;;;;;;;32.17;5.22;;;;;;;;;;4960664;28;20101;-77
2022/11/10 12:27:29;;;;;;;36.60;5.93;;;;;;;;;;4931524;28;20127;-82
2022/11/10 12:30:04;;;;;;;36.85;6.18;;;;;;;;;;4986375;28;20096;-83
2022/11/10 12:32:41;;;;;;;32.13;5.13;;;;;;;;;;4932832;28;20542;-80
2022/11/10 12:35:46;;;;;;;31.30;5.30;;;;;;;;;;4968374;28;20041;-78
2022/11/10 12:38:25;;;;;;;34.90;6.28;;;;;;;;;;4911889;28;20724;-80
2022/11/10 12:40:52;;;;;;;35.22;6.43;;;;;;;;;;4904934;28;20145;-80
2022/11/10 12:43:27;;;;;;;39.15;5.78;;;;;;;;;;4939525;28;20052;-80
2022/11/10 12:45:55;;;;;;;42.60;7.18;;;;;;;;;;4947449;28;20046;-78
2022/11/10 12:48:24;;;;;;;42.72;6.22;;;;;;;;;;4932190;28;20129;-78
2022/11/10 12:50:54;;;;;;;36.13;6.07;;;;;;;;;;4947889;28;20037;-76
2022/11/10 12:53:19;;;;;;;37.33;6.43;;;;;;;;;;4963003;28;20076;-76
2022/11/10 12:55:47;;;;;;;29.77;5.72;;;;;;;;;;4965935;28;20038;-74
2022/11/10 12:58:13;;;;;;;27.30;5.40;;;;;;;;;;4942953;28;20129;-75
2022/11/10 13:00:42;;;;;;;25.88;4.90;;;;;;;;;;4937019;28;20041;-75
2022/11/10 13:03:22;;;;;;;28.88;5.10;;;;;;;;;;4941645;28;20030;-75
2022/11/10 13:05:53;;;;;;;33.45;4.97;;;;;;;;;;4960184;28;20038;-75
2022/11/10 13:08:23;;;;;;;39.07;6.27;;;;;;;;;;4944714;28;20129;-76
2022/11/10 13:10:52;;;;;;;33.75;5.60;;;;;;;;;;4962245;28;20296;-75
2022/11/10 13:13:19;;;;;;;35.28;5.32;;;;;;;;;;4948802;28;20045;-76
2022/11/10 13:15:48;;;;;;;30.00;5.20;;;;;;;;;;4937381;28;20033;-76
2022/11/10 13:18:25;;;;;;;29.40;5.05;;;;;;;;;;4958774;28;20034;-74
2022/11/10 13:20:54;;;;;;;28.65;4.78;;;;;;;;;;4965418;28;20127;-76
2022/11/10 13:23:19;;;;;;;31.80;5.60;;;;;;;;;;4964232;28;20319;-74
2022/11/10 13:25:55;;;;;;;32.35;5.00;;;;;;;;;;4965317;28;20588;-75
2022/11/10 13:28:39;;;;;;;29.88;5.93;;;;;;;;;;4962307;28;20121;-76
2022/11/10 13:31:37;;;;;;;26.75;4.95;;;;;;;;;;4959847;28;20485;-76
2022/11/10 13:34:02;;;;;;;36.85;5.63;;;;;;;;;;4921132;28;20034;-76
2022/11/10 13:36:54;;;;;;;33.08;6.20;;;;;;;;;;4961890;28;20413;-76
2022/11/10 13:39:23;;;;;;;22.55;5.25;;;;;;;;;;4938245;28;20087;-77
2022/11/10 13:42:02;;;;;;;29.52;5.38;;;;;;;;;;4925919;28;20315;-76
2022/11/10 13:44:35;;;;;;;39.53;5.93;;;;;;;;;;4964142;28;20829;-77
2022/11/10 13:47:06;;;;;;;28.27;4.85;;;;;;;;;;4962380;28;20279;-77
2022/11/10 13:49:44;;;;;;;29.27;5.50;;;;;;;;;;4962887;28;20506;-77
2022/11/10 13:52:16;;;;;;;30.58;5.22;;;;;;;;;;4953920;28;20116;-76
2022/11/10 13:55:00;;;;;;;31.17;4.55;;;;;;;;;;4960398;28;20137;-74
2022/11/10 13:57:38;;;;;;;33.78;5.38;;;;;;;;;;4924347;28;20652;-77
2022/11/10 14:00:26;;;;;;;36.03;4.97;;;;;;;;;;4959966;28;20033;-77
2022/11/10 14:03:00;;;;;;;30.58;4.88;;;;;;;;;;4965669;28;20183;-77
2022/11/10 14:05:28;;;;;;;28.00;4.38;;;;;;;;;;4935152;28;20710;-78
2022/11/10 14:08:15;;;;;;;35.08;5.95;;;;;;;;;;4957178;28;20742;-75
2022/11/10 14:10:49;;;;;;;28.77;5.35;;;;;;;;;;4913655;28;20416;-74
2022/11/10 14:13:21;;;;;;;37.22;5.40;;;;;;;;;;4953036;28;20045;-78
2022/11/10 14:15:47;;;;;;;40.28;5.97;;;;;;;;;;4937228;28;20029;-74
2022/11/10 14:18:16;;;;;;;44.90;6.50;;;;;;;;;;4961913;28;20030;-76
2022/11/10 14:20:42;;;;;;;38.92;5.88;;;;;;;;;;4943228;28;20478;-75
2022/11/10 14:23:20;;;;;;;35.33;6.22;;;;;;;;;;4935017;28;20492;-75
2022/11/10 14:25:53;;;;;;;42.47;6.53;;;;;;;;;;4962935;28;20049;-76
2022/11/10 14:28:26;;;;;;;32.15;5.32;;;;;;;;;;4940986;28;20249;-74
2022/11/10 14:30:54;;;;;;;28.92;6.43;;;;;;;;;;4943681;28;20751;-76
2022/11/10 14:33:39;;;;;;;34.17;5.85;;;;;;;;;;4931787;28;20148;-77
2022/11/10 14:36:07;;;;;;;28.05;5.15;;;;;;;;;;4891564;28;20443;-77
2022/11/10 14:38:41;;;;;;;34.20;4.72;;;;;;;;;;4933861;28;20054;-76
2022/11/10 14:41:16;;;;;;;25.67;4.13;;;;;;;;;;4940378;28;20477;-75
2022/11/10 14:43:57;;;;;;;31.10;5.50;;;;;;;;;;4948327;28;21665;-78
2022/11/10 14:46:44;;;;;;;;;;;;;;;;;;;;;
2022/11/10 14:49:10;;;;;;;27.15;5.05;;;;;;;;;;4908263;28;20137;-77
2022/11/10 14:51:39;;;;;;;33.80;6.13;;;;;;;;;;4943415;28;20530;-76
2022/11/10 14:54:06;;;;;;;34.95;6.90;;;;;;;;;;4906329;28;20039;-77